Time;durP1;ratioP1;P1;durP2;ratioP2;P2;SDS_P1;SDS_P2;PMS_P1;PMS_P2;Temp;Humidity;BMP_temperature;BMP_pressure;BME280_temperature;BME280_humidity;BME280_pressure;Samples;Min_cycle;Max_cycle;Signal;HPM_P1;HPM_P2
2022/05/24 00:01:16;;;;;;;1.25;1.13;;;18.40;71.90;;;;;;4982252;28;20552;-73
2022/05/24 00:03:41;;;;;;;2.50;0.80;;;18.30;71.90;;;;;;4964383;28;20052;-72
2022/05/24 00:06:07;;;;;;;1.52;1.42;;;18.30;71.90;;;;;;4954950;28;20548;-74
2022/05/24 00:08:33;;;;;;;1.17;1.08;;;18.30;71.90;;;;;;4980743;28;20506;-72
2022/05/24 00:10:58;;;;;;;0.90;0.90;;;18.30;71.90;;;;;;4976885;28;20038;-73
2022/05/24 00:13:24;;;;;;;1.17;0.98;;;18.20;71.90;;;;;;4956737;28;20041;-73
2022/05/24 00:15:49;;;;;;;1.27;1.00;;;18.20;71.90;;;;;;4998232;28;20029;-72
2022/05/24 00:18:17;;;;;;;3.58;1.15;;;18.20;72.10;;;;;;4981394;28;20120;-74
2022/05/24 00:20:45;;;;;;;3.90;0.95;;;18.20;72.10;;;;;;4965441;28;20038;-73
2022/05/24 00:23:11;;;;;;;2.17;1.10;;;18.10;72.20;;;;;;4980580;28;20466;-73
2022/05/24 00:25:39;;;;;;;1.20;0.80;;;18.10;72.20;;;;;;4994856;28;20120;-73
2022/05/24 00:28:05;;;;;;;1.40;1.00;;;18.10;72.20;;;;;;4966681;28;20030;-72
2022/05/24 00:30:30;;;;;;;2.70;1.05;;;18.00;72.10;;;;;;4968909;28;20045;-72
2022/05/24 00:32:56;;;;;;;1.98;1.23;;;18.00;72.30;;;;;;4985129;28;20076;-72
2022/05/24 00:35:21;;;;;;;2.38;0.90;;;18.00;72.40;;;;;;4977112;28;20026;-72
2022/05/24 00:37:47;;;;;;;1.58;1.10;;;18.00;72.40;;;;;;4968380;28;20038;-72
2022/05/24 00:40:23;;;;;;;2.25;1.42;;;17.90;72.50;;;;;;4982656;28;20030;-73
2022/05/24 00:42:48;;;;;;;1.63;0.82;;;17.90;72.50;;;;;;4985508;28;20053;-72
2022/05/24 00:45:33;;;;;;;1.30;1.20;;;17.80;72.60;;;;;;4950959;28;20062;-73
2022/05/24 00:48:03;;;;;;;1.52;1.30;;;17.80;72.80;;;;;;4964026;28;20034;-72
2022/05/24 00:50:37;;;;;;;2.10;1.17;;;17.70;72.70;;;;;;4982373;28;20126;-72
2022/05/24 00:53:30;;;;;;;1.92;1.40;;;17.70;72.90;;;;;;4982716;28;20030;-72
2022/05/24 00:56:16;;;;;;;5.25;1.08;;;17.70;73.20;;;;;;4965385;28;20412;-72
2022/05/24 00:59:06;;;;;;;2.78;1.00;;;17.60;73.30;;;;;;4944590;28;20430;-72
2022/05/24 01:01:37;;;;;;;2.53;0.95;;;17.50;73.20;;;;;;4979038;28;20025;-72
2022/05/24 01:04:03;;;;;;;6.07;1.00;;;17.50;73.00;;;;;;4966414;28;20078;-73
2022/05/24 01:06:29;;;;;;;1.10;1.00;;;17.50;73.00;;;;;;4971741;28;20026;-72
2022/05/24 01:08:55;;;;;;;2.55;1.13;;;17.50;73.10;;;;;;4999924;28;20034;-73
2022/05/24 01:11:20;;;;;;;2.10;0.93;;;17.50;73.20;;;;;;4991500;28;20033;-73
2022/05/24 01:13:46;;;;;;;2.17;1.08;;;17.50;73.20;;;;;;4980880;28;20121;-73
2022/05/24 01:16:12;;;;;;;2.45;1.10;;;17.50;73.20;;;;;;5006007;28;20038;-73
2022/05/24 01:18:37;;;;;;;4.57;0.88;;;17.40;73.20;;;;;;5000572;28;20026;-72
2022/05/24 01:21:05;;;;;;;3.75;0.90;;;17.50;73.30;;;;;;4992797;28;20088;-72
2022/05/24 01:24:02;;;;;;;1.73;1.10;;;17.40;73.20;;;;;;4986003;28;20137;-72
2022/05/24 01:26:40;;;;;;;1.58;1.00;;;17.40;73.70;;;;;;4990631;28;20038;-72
2022/05/24 01:29:06;;;;;;;1.10;1.00;;;17.40;73.40;;;;;;5007761;28;20492;-73
2022/05/24 01:37:20;;;;;;;2.08;1.10;;;17.40;73.40;;;;;;4912769;29;20082;-72
2022/05/24 01:39:51;;;;;;;1.10;0.98;;;17.30;73.40;;;;;;4952788;28;20034;-73
2022/05/24 01:42:17;;;;;;;1.40;1.00;;;17.30;74.30;;;;;;4944512;28;20078;-73
2022/05/24 01:45:09;;;;;;;1.30;0.98;;;17.30;73.50;;;;;;4946503;28;20062;-73
2022/05/24 01:47:35;;;;;;;2.10;1.20;;;17.30;73.80;;;;;;4989103;28;20173;-73
2022/05/24 01:50:05;;;;;;;3.13;1.02;;;17.30;73.50;;;;;;4974469;28;20067;-72
2022/05/24 01:53:01;;;;;;;2.30;1.45;;;17.30;73.60;;;;;;4985567;28;20038;-73
2022/05/24 01:55:38;;;;;;;3.85;1.00;;;17.30;73.60;;;;;;4973247;28;20563;-73
2022/05/24 01:58:06;;;;;;;3.50;1.20;;;17.20;73.60;;;;;;4971374;28;20117;-72
2022/05/24 02:00:31;;;;;;;2.55;1.95;;;17.30;73.60;;;;;;4970549;28;20052;-73
2022/05/24 02:02:57;;;;;;;1.65;1.05;;;17.20;73.60;;;;;;4993584;28;20898;-72
2022/05/24 02:05:48;;;;;;;1.50;0.80;;;17.20;73.70;;;;;;4976000;28;20044;-74
2022/05/24 02:08:14;;;;;;;;;;;17.20;74.10;;;;;;4969224;28;20440;-73
2022/05/24 02:11:12;;;;;;;2.65;0.90;;;17.20;73.60;;;;;;4986324;28;19979;-72
2022/05/24 02:13:39;;;;;;;1.27;1.05;;;17.20;73.70;;;;;;4937824;28;20608;-72
2022/05/24 02:16:15;;;;;;;1.98;1.10;;;17.20;73.60;;;;;;4971163;28;20111;-73
2022/05/24 02:18:43;;;;;;;3.15;1.00;;;17.20;73.90;;;;;;4983844;28;20491;-73
2022/05/24 02:21:09;;;;;;;3.03;1.17;;;17.20;73.70;;;;;;4990117;28;20042;-72
2022/05/24 02:23:42;;;;;;;1.13;1.02;;;17.20;73.70;;;;;;4997887;28;20402;-73
2022/05/24 02:26:08;;;;;;;3.55;1.00;;;17.10;73.80;;;;;;4988203;28;20042;-72
2022/05/24 02:28:34;;;;;;;3.15;1.15;;;17.10;73.80;;;;;;4963965;28;20066;-74
2022/05/24 02:31:02;;;;;;;1.90;1.10;;;17.10;74.50;;;;;;4984113;28;20744;-73
2022/05/24 02:33:28;;;;;;;1.20;0.98;;;17.10;73.80;;;;;;4981831;28;20058;-73
2022/05/24 02:35:53;;;;;;;2.00;1.10;;;17.10;73.80;;;;;;4977764;28;20078;-73
2022/05/24 02:38:19;;;;;;;1.10;0.93;;;17.00;73.80;;;;;;4980380;28;20042;-73
2022/05/24 02:43:29;;;;;;;4.65;0.93;;;17.00;73.70;;;;;;4986727;28;20046;-73
2022/05/24 02:45:56;;;;;;;1.00;1.00;;;17.00;73.70;;;;;;4968391;28;20042;-72
2022/05/24 02:48:22;;;;;;;1.00;0.77;;;17.00;73.90;;;;;;4967334;28;20659;-73
2022/05/24 02:50:47;;;;;;;2.47;0.90;;;16.90;73.80;;;;;;4989634;28;20494;-73
2022/05/24 02:53:13;;;;;;;1.98;1.00;;;17.00;73.90;;;;;;4951664;28;20093;-73
2022/05/24 02:55:38;;;;;;;3.75;1.10;;;16.90;73.70;;;;;;4987493;28;20038;-73
2022/05/24 02:58:04;;;;;;;3.63;1.08;;;16.90;73.80;;;;;;4974001;28;20129;-72
2022/05/24 03:00:29;;;;;;;1.05;0.93;;;16.90;73.80;;;;;;4980569;28;20119;-74
2022/05/24 03:02:55;;;;;;;2.20;1.10;;;16.90;73.80;;;;;;4984641;28;20046;-73
2022/05/24 03:05:21;;;;;;;1.95;0.95;;;16.80;73.80;;;;;;4984821;28;20048;-72
2022/05/24 03:10:31;;;;;;;2.53;0.88;;;16.80;73.90;;;;;;4997893;28;20044;-72
2022/05/24 03:15:41;;;;;;;2.50;1.35;;;16.70;73.90;;;;;;4967835;28;20460;-72
2022/05/24 03:18:08;;;;;;;4.25;1.20;;;16.70;73.90;;;;;;5002658;28;20117;-73
2022/05/24 03:20:33;;;;;;;1.25;1.00;;;16.60;74.00;;;;;;4979267;28;20045;-72
2022/05/24 03:22:59;;;;;;;1.00;0.90;;;16.60;74.00;;;;;;4980523;28;20038;-72
2022/05/24 03:25:24;;;;;;;4.65;1.10;;;16.60;74.10;;;;;;4968485;28;20040;-73
2022/05/24 03:27:50;;;;;;;2.00;1.10;;;16.50;74.10;;;;;;4985111;28;20208;-74
2022/05/24 03:30:16;;;;;;;4.20;1.02;;;16.50;74.10;;;;;;4969243;28;20476;-71
2022/05/24 03:32:41;;;;;;;1.80;0.90;;;16.50;74.20;;;;;;4979717;28;20060;-71
2022/05/24 03:35:08;;;;;;;1.13;0.90;;;16.40;74.10;;;;;;4976956;28;20038;-71
2022/05/24 03:37:34;;;;;;;0.80;0.80;;;16.40;74.20;;;;;;4970077;28;20180;-73
2022/05/24 03:39:59;;;;;;;6.40;1.33;;;16.40;74.30;;;;;;4994706;28;20117;-74
2022/05/24 03:42:25;;;;;;;3.80;1.58;;;16.40;74.40;;;;;;4989247;28;20070;-73
2022/05/24 03:44:50;;;;;;;4.68;0.93;;;16.30;74.30;;;;;;4980887;28;20053;-73
2022/05/24 03:47:16;;;;;;;1.92;1.40;;;16.30;75.20;;;;;;4996112;28;20044;-74
2022/05/24 03:49:42;;;;;;;1.05;0.95;;;16.30;74.40;;;;;;4977602;28;20037;-72
2022/05/24 03:52:07;;;;;;;1.73;0.88;;;16.20;74.40;;;;;;4979286;28;20088;-74
2022/05/24 03:54:33;;;;;;;2.28;1.00;;;16.20;74.40;;;;;;4997636;28;20087;-73
2022/05/24 03:59:43;;;;;;;2.05;1.05;;;16.20;74.60;;;;;;4968374;28;20122;-72
2022/05/24 04:02:08;;;;;;;5.55;0.95;;;16.10;74.60;;;;;;4995862;28;20134;-73
2022/05/24 04:04:34;;;;;;;3.10;1.02;;;16.10;74.60;;;;;;4982909;28;20130;-74
2022/05/24 04:07:00;;;;;;;1.27;1.17;;;16.10;74.70;;;;;;4985376;28;20036;-72
2022/05/24 04:09:25;;;;;;;4.22;1.38;;;16.00;74.70;;;;;;4983019;28;20034;-73
2022/05/24 04:11:54;;;;;;;2.33;1.10;;;16.00;74.70;;;;;;4994981;28;20038;-73
2022/05/24 04:14:19;;;;;;;1.55;0.90;;;16.00;74.90;;;;;;4997566;28;20384;-74
2022/05/24 04:16:45;;;;;;;2.47;0.90;;;16.00;74.90;;;;;;4996793;28;20561;-74
2022/05/24 04:19:10;;;;;;;2.38;0.93;;;16.00;75.00;;;;;;4985269;28;20038;-73
2022/05/24 04:21:36;;;;;;;3.47;0.90;;;16.00;75.20;;;;;;4982896;28;20531;-73
2022/05/24 04:24:01;;;;;;;1.42;0.77;;;16.00;75.20;;;;;;4976062;28;20486;-74
2022/05/24 04:26:27;;;;;;;5.28;0.90;;;16.00;75.30;;;;;;4978944;28;20060;-73
2022/05/24 04:28:53;;;;;;;1.05;0.80;;;16.00;75.50;;;;;;4983043;28;20854;-74
2022/05/24 04:31:18;;;;;;;2.28;0.82;;;16.00;75.50;;;;;;4978366;28;20743;-73
2022/05/24 04:33:44;;;;;;;2.70;1.00;;;16.00;75.60;;;;;;4995164;28;20022;-73
2022/05/24 04:36:09;;;;;;;1.75;1.23;;;16.00;75.70;;;;;;4985567;28;20040;-73
2022/05/24 04:38:35;;;;;;;3.17;1.20;;;16.00;75.60;;;;;;5001518;28;20522;-74
2022/05/24 04:43:44;;;;;;;3.92;1.00;;;16.00;75.80;;;;;;4979189;28;20044;-74
2022/05/24 04:46:12;;;;;;;1.75;1.00;;;16.10;75.90;;;;;;4985085;28;20045;-74
2022/05/24 04:48:37;;;;;;;3.20;1.20;;;16.10;75.90;;;;;;4991721;28;20034;-74
2022/05/24 04:51:03;;;;;;;3.78;1.20;;;16.10;76.20;;;;;;4992086;28;20406;-74
2022/05/24 04:53:28;;;;;;;1.60;1.20;;;16.20;76.10;;;;;;4985484;28;20069;-75
2022/05/24 04:55:54;;;;;;;1.55;1.20;;;16.20;76.90;;;;;;4989376;28;20510;-73
2022/05/24 04:58:20;;;;;;;3.13;1.30;;;16.20;76.30;;;;;;4958660;28;20073;-73
2022/05/24 05:00:46;;;;;;;2.10;1.23;;;16.20;76.30;;;;;;4961078;28;20038;-73
2022/05/24 05:03:13;;;;;;;4.53;1.80;;;16.30;76.20;;;;;;4998891;28;20057;-73
2022/05/24 05:05:38;;;;;;;1.80;1.50;;;16.30;76.30;;;;;;4988918;28;20091;-73
2022/05/24 05:08:05;;;;;;;1.63;1.23;;;16.30;76.30;;;;;;4969034;28;20045;-75
2022/05/24 05:10:30;;;;;;;2.53;1.20;;;16.30;76.20;;;;;;4999288;28;20127;-74
2022/05/24 05:12:56;;;;;;;1.55;1.00;;;16.40;76.40;;;;;;4983700;28;20623;-76
2022/05/24 05:15:21;;;;;;;1.90;1.15;;;16.40;76.30;;;;;;4997059;28;20056;-75
2022/05/24 05:17:47;;;;;;;3.45;1.00;;;16.40;76.20;;;;;;4961395;28;20469;-75
2022/05/24 05:20:13;;;;;;;2.05;1.20;;;16.50;76.30;;;;;;4991299;28;20033;-75
2022/05/24 05:22:38;;;;;;;1.83;1.17;;;16.50;76.30;;;;;;4974473;28;20038;-74
2022/05/24 05:25:05;;;;;;;3.30;1.50;;;16.60;76.40;;;;;;4962223;28;20423;-74
2022/05/24 05:27:31;;;;;;;1.83;1.13;;;16.60;76.50;;;;;;4985614;28;20400;-73
2022/05/24 05:32:41;;;;;;;2.08;1.50;;;16.70;76.50;;;;;;4966259;28;20095;-74
2022/05/24 05:35:07;;;;;;;2.75;1.50;;;16.70;76.40;;;;;;4955857;28;20046;-74
2022/05/24 05:37:33;;;;;;;3.65;1.60;;;16.80;76.40;;;;;;4983462;28;20030;-73
2022/05/24 05:40:03;;;;;;;1.77;1.50;;;16.80;76.40;;;;;;4974703;28;20121;-74
2022/05/24 05:42:29;;;;;;;5.22;1.80;;;16.80;76.60;;;;;;4987991;28;20050;-74
2022/05/24 05:44:55;;;;;;;3.20;1.55;;;16.90;76.70;;;;;;4982974;28;20039;-73
2022/05/24 05:47:20;;;;;;;2.35;2.10;;;16.80;76.50;;;;;;5001745;28;20411;-73
2022/05/24 05:49:46;;;;;;;3.78;2.50;;;16.90;76.60;;;;;;5003433;28;20045;-75
2022/05/24 05:52:12;;;;;;;3.88;2.40;;;16.90;76.80;;;;;;4953808;28;20138;-74
2022/05/24 05:54:37;;;;;;;2.97;2.30;;;16.90;76.60;;;;;;4991122;28;20062;-73
2022/05/24 05:57:05;;;;;;;2.70;1.92;;;16.90;76.60;;;;;;4975108;28;20124;-75
2022/05/24 05:59:31;;;;;;;2.83;2.58;;;16.90;76.80;;;;;;5000190;28;20065;-74
2022/05/24 06:01:58;;;;;;;4.85;2.53;;;17.00;76.90;;;;;;4997361;28;20073;-73
2022/05/24 06:04:23;;;;;;;2.70;2.50;;;17.00;77.00;;;;;;4961888;28;20114;-73
2022/05/24 06:06:49;;;;;;;5.95;3.15;;;17.00;76.90;;;;;;4983561;28;20774;-74
2022/05/24 06:09:15;;;;;;;3.40;3.00;;;17.10;77.00;;;;;;4980867;28;20073;-73
2022/05/24 06:11:41;;;;;;;4.60;3.03;;;17.20;77.00;;;;;;5000463;28;20037;-74
2022/05/24 06:14:07;;;;;;;4.13;2.92;;;17.20;77.00;;;;;;5001436;28;20056;-73
2022/05/24 06:16:33;;;;;;;4.65;2.70;;;17.30;77.10;;;;;;4995740;28;20118;-73
2022/05/24 06:18:58;;;;;;;3.30;3.00;;;17.40;77.10;;;;;;4996485;28;20113;-73
2022/05/24 06:21:24;;;;;;;3.53;2.88;;;17.50;77.00;;;;;;4973455;28;20085;-74
2022/05/24 06:23:49;;;;;;;5.00;2.90;;;17.60;77.00;;;;;;4980630;28;20057;-74
2022/05/24 06:26:18;;;;;;;2.15;1.95;;;17.70;76.90;;;;;;4977724;28;20597;-73
2022/05/24 06:28:44;;;;;;;2.20;2.00;;;17.80;76.70;;;;;;4999532;28;20057;-73
2022/05/24 06:31:09;;;;;;;3.80;2.08;;;17.90;76.50;;;;;;4981736;28;20073;-74
2022/05/24 06:33:35;;;;;;;2.95;2.00;;;18.00;76.20;;;;;;5000835;28;20037;-74
2022/05/24 06:36:00;;;;;;;1.80;1.70;;;18.00;75.90;;;;;;5004050;28;20029;-73
2022/05/24 06:38:26;;;;;;;2.83;1.75;;;18.00;75.60;;;;;;4987220;28;20041;-74
2022/05/24 06:40:51;;;;;;;1.75;1.27;;;18.10;75.40;;;;;;4980786;28;20430;-74
2022/05/24 06:43:17;;;;;;;1.98;1.67;;;18.10;75.10;;;;;;4973245;28;20129;-74
2022/05/24 06:45:42;;;;;;;2.38;1.42;;;18.20;75.00;;;;;;5004650;28;20128;-74
2022/05/24 06:48:09;;;;;;;1.92;1.25;;;18.20;74.80;;;;;;4998547;28;20054;-74
2022/05/24 06:50:35;;;;;;;3.15;1.23;;;18.30;74.70;;;;;;5000470;28;20057;-74
2022/05/24 06:53:01;;;;;;;4.13;1.20;;;18.40;74.80;;;;;;4997640;28;20374;-74
2022/05/24 06:55:26;;;;;;;1.55;1.00;;;18.50;74.10;;;;;;4999516;28;20040;-74
2022/05/24 06:57:52;;;;;;;1.60;1.00;;;18.60;73.80;;;;;;4973625;28;20031;-74
2022/05/24 07:03:07;;;;;;;1.45;0.70;;;18.80;73.10;;;;;;4982360;28;20881;-74
2022/05/24 07:05:32;;;;;;;2.05;0.80;;;19.00;72.60;;;;;;4990591;28;20491;-73
2022/05/24 07:08:00;;;;;;;1.25;0.85;;;19.00;72.40;;;;;;4969287;28;20048;-74
2022/05/24 07:10:27;;;;;;;1.80;0.70;;;19.10;72.10;;;;;;4998088;28;20030;-74
2022/05/24 07:13:06;;;;;;;0.93;0.57;;;19.20;71.90;;;;;;4989765;28;20097;-73
2022/05/24 07:15:32;;;;;;;0.52;0.52;;;19.30;71.60;;;;;;4963695;28;20084;-73
2022/05/24 07:17:58;;;;;;;1.20;0.60;;;19.40;71.40;;;;;;4995576;28;20052;-74
2022/05/24 07:20:25;;;;;;;0.80;0.60;;;19.60;70.90;;;;;;4963170;28;20057;-75
2022/05/24 07:22:51;;;;;;;2.22;0.57;;;19.60;70.40;;;;;;4985422;28;20041;-74
2022/05/24 07:25:17;;;;;;;0.40;0.40;;;19.60;70.00;;;;;;4999224;28;20060;-74
2022/05/24 07:27:42;;;;;;;1.27;0.60;;;19.70;69.80;;;;;;4973811;28;20069;-74
2022/05/24 07:30:08;;;;;;;2.10;0.52;;;19.80;69.70;;;;;;4974851;28;20113;-74
2022/05/24 07:32:34;;;;;;;1.27;0.45;;;19.90;69.60;;;;;;4983312;28;20100;-74
2022/05/24 07:35:00;;;;;;;0.93;0.43;;;20.00;69.30;;;;;;4990175;28;20034;-74
2022/05/24 07:37:26;;;;;;;1.65;0.55;;;20.10;69.00;;;;;;4954193;28;20040;-74
2022/05/24 07:48:06;;;;;;;5.28;0.32;;;20.20;67.80;;;;;;4984134;28;20041;-73
2022/05/24 07:50:32;;;;;;;0.47;0.40;;;20.10;67.40;;;;;;4991101;28;20038;-75
2022/05/24 07:52:57;;;;;;;1.98;0.20;;;20.10;67.20;;;;;;4982222;28;20548;-74
2022/05/24 07:55:24;;;;;;;1.20;0.20;;;20.10;67.10;;;;;;4964655;28;20030;-74
2022/05/24 07:57:50;;;;;;;2.53;0.25;;;20.00;66.80;;;;;;4984039;28;20042;-73
2022/05/24 08:00:16;;;;;;;1.95;0.20;;;19.90;66.40;;;;;;4997195;28;20560;-74
2022/05/24 08:02:41;;;;;;;0.45;0.20;;;19.90;66.30;;;;;;4984373;28;20045;-74
2022/05/24 08:05:07;;;;;;;0.65;0.20;;;20.00;66.40;;;;;;4984604;28;20546;-75
2022/05/24 08:07:33;;;;;;;1.20;0.30;;;20.00;66.00;;;;;;4970661;28;20060;-74
2022/05/24 08:09:58;;;;;;;1.30;0.28;;;20.00;65.80;;;;;;5004288;28;20505;-74
2022/05/24 08:12:24;;;;;;;0.20;0.17;;;20.00;65.70;;;;;;4972582;28;20030;-73
2022/05/24 08:14:49;;;;;;;0.52;0.30;;;20.00;65.60;;;;;;4991907;28;20018;-74
2022/05/24 08:17:15;;;;;;;1.52;0.20;;;20.10;65.00;;;;;;4972614;28;20052;-74
2022/05/24 08:19:40;;;;;;;0.20;0.13;;;20.10;64.90;;;;;;4963047;28;20124;-74
2022/05/24 08:22:06;;;;;;;2.47;0.20;;;20.00;64.20;;;;;;4973403;28;20101;-75
2022/05/24 08:24:32;;;;;;;1.65;0.98;;;20.00;64.30;;;;;;4982298;28;20387;-75
2022/05/24 08:26:58;;;;;;;1.08;0.60;;;20.00;64.00;;;;;;4971694;28;20499;-73
2022/05/24 08:29:23;;;;;;;1.40;0.30;;;20.00;63.90;;;;;;4983629;28;20064;-74
2022/05/24 08:31:49;;;;;;;1.77;0.35;;;20.00;63.70;;;;;;4983371;28;20105;-74
2022/05/24 08:34:14;;;;;;;1.85;0.20;;;20.10;63.60;;;;;;4975120;28;20061;-74
2022/05/24 08:36:40;;;;;;;1.27;0.20;;;20.20;63.50;;;;;;4960213;28;20028;-74
2022/05/24 08:39:06;;;;;;;0.50;0.30;;;20.40;63.30;;;;;;5000077;28;20038;-74
2022/05/24 08:42:05;;;;;;;0.73;0.30;;;20.40;62.90;;;;;;5001447;28;20030;-74
2022/05/24 08:50:11;;;;;;;2.78;0.30;;;20.60;62.00;;;;;;5000281;28;20653;-74
2022/05/24 08:52:39;;;;;;;0.90;0.40;;;20.60;61.70;;;;;;4973393;28;20101;-74
2022/05/24 08:55:06;;;;;;;1.17;0.15;;;20.60;61.20;;;;;;5002749;28;20022;-74
2022/05/24 08:57:52;;;;;;;0.35;0.20;;;20.60;61.00;;;;;;4975105;28;20635;-74
2022/05/24 09:00:21;;;;;;;0.20;0.20;;;20.60;60.30;;;;;;4976041;28;20037;-74
2022/05/24 09:02:47;;;;;;;2.25;0.98;;;20.60;61.60;;;;;;4987672;28;20033;-73
2022/05/24 09:05:33;;;;;;;0.77;0.40;;;20.50;60.60;;;;;;5000945;28;20042;-74
2022/05/24 09:08:26;;;;;;;8.93;0.75;;;20.60;60.30;;;;;;4986149;28;20076;-75
2022/05/24 09:11:06;;;;;;;2.35;0.55;;;20.60;60.10;;;;;;4991945;28;20037;-75
2022/05/24 09:13:52;;;;;;;0.15;0.15;;;20.70;60.20;;;;;;4989248;28;20100;-74
2022/05/24 09:16:18;;;;;;;1.17;0.30;;;20.70;59.70;;;;;;5000319;28;20042;-75
2022/05/24 09:18:56;;;;;;;0.52;0.30;;;20.60;59.90;;;;;;4985260;28;20688;-75
2022/05/24 09:21:28;;;;;;;2.08;0.20;;;20.60;59.40;;;;;;4987325;28;20084;-74
2022/05/24 09:24:02;;;;;;;0.30;0.28;;;20.60;59.70;;;;;;5002086;28;20053;-74
2022/05/24 09:26:29;;;;;;;0.75;0.45;;;20.70;59.60;;;;;;4986563;28;20110;-74
2022/05/24 09:28:58;;;;;;;1.42;0.30;;;20.70;59.50;;;;;;4975597;28;20046;-74
2022/05/24 09:31:35;;;;;;;0.50;0.20;;;20.70;59.40;;;;;;4977032;28;20112;-75
2022/05/24 09:34:07;;;;;;;0.22;0.10;;;20.70;59.00;;;;;;5001298;28;20117;-75
2022/05/24 09:36:42;;;;;;;;;;;20.80;59.00;;;;;;5004426;28;20037;-74
2022/05/24 09:39:31;;;;;;;0.28;0.20;;;21.00;59.20;;;;;;5005294;28;19980;-75
2022/05/24 09:42:01;;;;;;;0.10;0.10;;;21.20;58.60;;;;;;4961672;28;20069;-75
2022/05/24 09:44:28;;;;;;;2.30;0.20;;;21.40;58.60;;;;;;5003314;28;20105;-75
2022/05/24 09:46:53;;;;;;;1.45;0.20;;;21.50;58.50;;;;;;4987010;28;20037;-74
2022/05/24 09:49:23;;;;;;;1.48;0.30;;;21.60;58.20;;;;;;4970099;28;20034;-75
2022/05/24 09:51:50;;;;;;;0.30;0.30;;;21.60;58.00;;;;;;4999613;28;20038;-75
2022/05/24 09:54:21;;;;;;;2.53;0.20;;;21.60;57.70;;;;;;4999845;28;20041;-75
2022/05/24 09:57:10;;;;;;;1.27;0.30;;;21.60;57.40;;;;;;5002248;28;20570;-74
2022/05/24 09:59:39;;;;;;;0.28;0.20;;;21.60;56.90;;;;;;4974376;28;20022;-75
2022/05/24 10:02:24;;;;;;;1.40;0.20;;;21.60;57.40;;;;;;4937124;28;20046;-74
2022/05/24 10:04:49;;;;;;;0.28;0.10;;;21.60;56.90;;;;;;4976057;28;20049;-74
2022/05/24 10:07:22;;;;;;;0.43;0.20;;;21.60;57.20;;;;;;5004261;28;20033;-74
2022/05/24 10:10:08;;;;;;;0.40;0.20;;;21.60;56.90;;;;;;5004168;28;20506;-75
2022/05/24 10:13:01;;;;;;;0.45;0.20;;;21.70;57.00;;;;;;4977570;28;20034;-75
2022/05/24 10:15:30;;;;;;;0.20;0.20;;;21.90;56.60;;;;;;4987999;28;20588;-76
2022/05/24 10:18:05;;;;;;;1.20;0.20;;;22.00;56.60;;;;;;4983739;28;20503;-74
2022/05/24 10:20:33;;;;;;;2.47;0.30;;;22.10;56.50;;;;;;4980752;28;20045;-75
2022/05/24 10:23:40;;;;;;;0.90;0.25;;;22.30;56.30;;;;;;4980461;28;20769;-75
2022/05/24 10:26:34;;;;;;;0.85;0.40;;;22.50;55.60;;;;;;4986256;28;20394;-74
2022/05/24 10:29:26;;;;;;;2.47;0.65;;;22.70;55.40;;;;;;4997764;28;20031;-75
2022/05/24 10:31:54;;;;;;;0.20;0.10;;;23.00;54.80;;;;;;4999110;28;20030;-76
2022/05/24 10:40:59;;;;;;;1.85;0.17;;;23.60;53.80;;;;;;4969893;28;20437;-74
2022/05/24 10:43:27;;;;;;;1.05;0.15;;;23.80;52.70;;;;;;4991128;28;20044;-75
2022/05/24 10:46:00;;;;;;;0.17;0.15;;;23.90;53.30;;;;;;4996722;28;20042;-74
2022/05/24 10:48:35;;;;;;;4.38;0.30;;;24.00;52.50;;;;;;4988455;28;20037;-75
2022/05/24 10:51:16;;;;;;;1.73;0.20;;;24.00;52.40;;;;;;4981389;28;20544;-74
2022/05/24 10:53:52;;;;;;;0.55;0.10;;;24.00;51.80;;;;;;5003964;28;20049;-75
2022/05/24 10:56:43;;;;;;;2.05;0.20;;;23.90;51.70;;;;;;4984064;28;20033;-74
2022/05/24 10:59:18;;;;;;;3.38;0.28;;;23.90;51.70;;;;;;5003852;28;20042;-75
2022/05/24 11:01:56;;;;;;;2.22;0.30;;;24.00;51.70;;;;;;5003314;28;20065;-75
2022/05/24 11:04:29;;;;;;;1.98;0.20;;;24.10;51.30;;;;;;4981784;28;20046;-74
2022/05/24 11:06:59;;;;;;;1.95;0.30;;;24.20;51.40;;;;;;4988643;28;20030;-75
2022/05/24 11:09:25;;;;;;;0.45;0.15;;;24.40;51.20;;;;;;4975773;28;20037;-75
2022/05/24 11:12:05;;;;;;;1.10;0.20;;;24.60;50.90;;;;;;4987087;28;20037;-75
2022/05/24 11:14:45;;;;;;;0.10;0.10;;;24.80;49.40;;;;;;4944045;28;20082;-74
2022/05/24 11:17:11;;;;;;;1.17;0.20;;;24.90;49.20;;;;;;4987870;28;20037;-75
2022/05/24 11:19:39;;;;;;;0.28;0.20;;;24.90;49.60;;;;;;4952831;28;20565;-75
2022/05/24 11:22:26;;;;;;;1.55;0.20;;;25.00;49.50;;;;;;4984627;28;20068;-76
2022/05/24 11:24:56;;;;;;;1.48;0.50;;;25.20;48.60;;;;;;4979617;28;20026;-75
2022/05/24 11:27:30;;;;;;;3.20;0.40;;;25.30;49.00;;;;;;4988671;28;20042;-76
2022/05/24 11:30:19;;;;;;;1.33;0.30;;;25.40;48.60;;;;;;4955392;28;20034;-75
2022/05/24 11:32:52;;;;;;;0.50;0.08;;;25.50;47.40;;;;;;4983472;28;20026;-75
2022/05/24 11:35:18;;;;;;;2.25;0.35;;;25.40;48.10;;;;;;4995777;28;20080;-75
2022/05/24 11:37:43;;;;;;;1.67;0.10;;;25.40;48.10;;;;;;4999777;28;20048;-75
2022/05/24 11:40:34;;;;;;;1.40;0.10;;;25.30;47.90;;;;;;5000877;28;20097;-75
2022/05/24 11:43:04;;;;;;;0.47;0.20;;;25.20;46.80;;;;;;4971661;28;20265;-75
2022/05/24 11:45:29;;;;;;;1.67;0.10;;;25.10;47.80;;;;;;4967501;28;20088;-75
2022/05/24 11:48:06;;;;;;;0.55;0.38;;;25.00;47.60;;;;;;4988718;28;20542;-75
2022/05/24 11:50:32;;;;;;;2.75;0.20;;;25.00;47.30;;;;;;4996524;28;20069;-75
2022/05/24 11:53:06;;;;;;;1.20;0.20;;;25.10;47.30;;;;;;5000511;28;20080;-75
2022/05/24 11:55:54;;;;;;;0.10;0.10;;;25.20;46.80;;;;;;4981901;28;20045;-76
2022/05/24 11:58:20;;;;;;;0.30;0.20;;;25.30;46.10;;;;;;4989536;28;20033;-75
2022/05/24 12:01:08;;;;;;;0.93;0.50;;;25.40;46.60;;;;;;5000107;28;20042;-76
2022/05/24 12:09:22;;;;;;;;;;;25.80;45.50;;;;;;4980717;28;20041;-75
2022/05/24 12:11:47;;;;;;;1.55;0.20;;;26.00;46.00;;;;;;4984892;28;19913;-73
2022/05/24 12:14:34;;;;;;;2.53;0.20;;;26.10;46.50;;;;;;5000909;28;20769;-74
2022/05/24 12:17:00;;;;;;;1.65;0.20;;;26.20;44.40;;;;;;4983251;28;20029;-76
2022/05/24 12:19:40;;;;;;;2.28;0.20;;;26.30;45.20;;;;;;4987721;28;20041;-75
2022/05/24 12:22:14;;;;;;;0.20;0.10;;;26.50;44.00;;;;;;4963633;28;20116;-75
2022/05/24 12:24:40;;;;;;;0.10;0.10;;;26.60;44.20;;;;;;4989743;28;20033;-74
2022/05/24 12:27:32;;;;;;;0.45;0.20;;;26.80;44.50;;;;;;4997169;28;20396;-74
2022/05/24 12:30:18;;;;;;;0.95;0.40;;;27.00;43.20;;;;;;4996706;28;20179;-74
2022/05/24 12:32:44;;;;;;;0.20;0.20;;;27.10;43.70;;;;;;4984594;28;20034;-75
2022/05/24 12:35:12;;;;;;;0.85;0.10;;;27.30;43.70;;;;;;4987773;28;20041;-74
2022/05/24 12:37:46;;;;;;;0.47;0.10;;;27.40;43.30;;;;;;4981702;28;20026;-75
2022/05/24 12:40:22;;;;;;;1.58;0.20;;;27.60;43.00;;;;;;4984860;28;20108;-75
2022/05/24 12:42:55;;;;;;;0.68;0.10;;;27.60;42.00;;;;;;4995503;28;20044;-75
2022/05/24 12:45:35;;;;;;;0.40;0.20;;;27.80;42.40;;;;;;4990356;28;20034;-75
2022/05/24 12:48:01;;;;;;;1.00;0.30;;;27.80;42.20;;;;;;4980478;28;20121;-75
2022/05/24 12:50:36;;;;;;;0.20;0.20;;;27.80;42.10;;;;;;4971584;28;20165;-75
2022/05/24 12:53:06;;;;;;;0.20;0.20;;;27.60;41.10;;;;;;4996539;28;20054;-75
2022/05/24 12:58:25;;;;;;;1.70;0.20;;;27.40;41.60;;;;;;4986807;28;20161;-75
2022/05/24 13:00:50;;;;;;;0.40;0.10;;;27.30;41.30;;;;;;4968332;28;20096;-75
2022/05/24 13:03:22;;;;;;;0.98;0.10;;;27.30;41.70;;;;;;4983184;28;20458;-74
2022/05/24 13:05:53;;;;;;;7.40;0.50;;;27.20;41.60;;;;;;4972368;28;20027;-76
2022/05/24 13:08:18;;;;;;;7.50;0.50;;;27.10;41.70;;;;;;4954883;28;20101;-74
2022/05/24 13:10:45;;;;;;;5.40;0.30;;;27.20;41.80;;;;;;4953680;28;20038;-75
2022/05/24 13:13:15;;;;;;;0.30;0.30;;;27.30;41.80;;;;;;4959282;28;20038;-75
2022/05/24 13:15:46;;;;;;;0.28;0.10;;;27.30;42.20;;;;;;4934330;28;20050;-74
2022/05/24 13:18:12;;;;;;;1.17;0.28;;;27.40;41.20;;;;;;4980035;28;20038;-75
2022/05/24 13:20:40;;;;;;;1.27;0.45;;;27.40;41.20;;;;;;4971562;28;20098;-74
2022/05/24 13:23:16;;;;;;;0.70;0.20;;;27.40;41.10;;;;;;4963160;28;20407;-75
2022/05/24 13:25:48;;;;;;;3.97;0.30;;;27.40;40.40;;;;;;4959581;28;20149;-75
2022/05/24 13:28:30;;;;;;;31.60;2.53;;;27.30;40.60;;;;;;4957741;28;20534;-74
2022/05/24 13:33:46;;;;;;;0.75;0.20;;;27.50;40.80;;;;;;4978399;28;20049;-75
2022/05/24 13:36:19;;;;;;;2.45;0.40;;;27.60;40.40;;;;;;4970815;28;20644;-76
2022/05/24 13:38:48;;;;;;;8.52;0.50;;;27.60;40.20;;;;;;4954063;28;20046;-75
2022/05/24 13:41:26;;;;;;;8.40;0.30;;;27.70;40.20;;;;;;4942232;28;20046;-75
2022/05/24 13:44:24;;;;;;;0.75;0.10;;;27.80;39.60;;;;;;4957415;28;20031;-75
2022/05/24 13:46:51;;;;;;;0.50;0.10;;;27.80;39.70;;;;;;4961005;28;20081;-77
2022/05/24 13:49:30;;;;;;;1.27;0.20;;;28.00;40.00;;;;;;4955109;28;20591;-75
2022/05/24 13:52:37;;;;;;;3.60;0.22;;;27.90;39.00;;;;;;4964049;28;20596;-74
2022/05/24 13:55:21;;;;;;;1.48;0.30;;;27.90;39.00;;;;;;4930149;28;20071;-75
2022/05/24 13:58:18;;;;;;;1.17;0.28;;;27.80;39.20;;;;;;4885649;28;20126;-74
2022/05/24 14:00:48;;;;;;;2.78;0.22;;;27.70;38.90;;;;;;4937150;28;20178;-75